createdAt,value
2022-08-04T00:01:42.162Z,23.50
2022-08-04T00:04:15.170Z,23.50
2022-08-04T00:06:53.039Z,23.40
2022-08-04T00:09:27.723Z,23.40
2022-08-04T00:11:55.883Z,23.30
2022-08-04T00:14:24.180Z,23.40
2022-08-04T00:16:54.538Z,23.40
2022-08-04T00:19:32.928Z,23.30
2022-08-04T00:22:02.046Z,23.30
2022-08-04T00:24:31.237Z,23.20
2022-08-04T00:26:59.470Z,23.20
2022-08-04T00:29:30.809Z,23.20
2022-08-04T00:31:59.012Z,23.10
2022-08-04T00:34:29.686Z,23.10
2022-08-04T00:36:58.388Z,23.00
2022-08-04T00:39:26.760Z,23.00
2022-08-04T00:42:10.312Z,23.00
2022-08-04T00:44:42.119Z,22.90
2022-08-04T00:47:20.700Z,23.00
2022-08-04T00:50:04.785Z,23.00
2022-08-04T00:52:38.779Z,23.10
2022-08-04T00:55:21.101Z,23.00
2022-08-04T00:58:05.103Z,23.10
2022-08-04T01:00:39.478Z,23.10
2022-08-04T01:03:14.034Z,23.00
2022-08-04T01:05:51.966Z,23.00
2022-08-04T01:08:43.604Z,23.00
2022-08-04T01:11:17.187Z,23.00
2022-08-04T01:14:01.798Z,23.10
2022-08-04T01:16:30.272Z,23.10
2022-08-04T01:19:01.454Z,23.00
2022-08-04T01:21:51.492Z,23.10
2022-08-04T01:24:31.179Z,23.00
2022-08-04T01:27:04.105Z,23.00
2022-08-04T01:29:46.630Z,23.00
2022-08-04T01:32:21.094Z,23.00
2022-08-04T01:34:57.452Z,23.00
2022-08-04T01:37:30.785Z,22.90
2022-08-04T01:40:03.367Z,22.90
2022-08-04T01:42:34.186Z,22.90
2022-08-04T01:45:05.313Z,23.00
2022-08-04T01:47:35.839Z,23.00
2022-08-04T01:50:07.842Z,22.90
2022-08-04T01:52:47.714Z,22.90
2022-08-04T01:55:19.414Z,22.90
2022-08-04T01:57:49.010Z,22.90
2022-08-04T02:00:20.571Z,22.90
2022-08-04T02:02:49.068Z,22.90
2022-08-04T02:05:18.379Z,22.80
2022-08-04T02:08:00.678Z,22.70
2022-08-04T02:10:30.714Z,22.70
2022-08-04T02:13:06.583Z,22.60
2022-08-04T02:15:38.669Z,22.70
2022-08-04T02:18:11.676Z,22.60
2022-08-04T02:20:42.872Z,22.60
2022-08-04T02:23:15.258Z,22.60
2022-08-04T02:25:49.008Z,22.60
2022-08-04T02:28:25.250Z,22.70
2022-08-04T02:31:04.219Z,22.70
2022-08-04T02:33:36.287Z,22.70
2022-08-04T02:36:05.963Z,22.70
2022-08-04T02:38:55.302Z,22.70
2022-08-04T02:41:26.540Z,22.70
2022-08-04T02:43:57.423Z,22.70
2022-08-04T02:46:27.039Z,22.70
2022-08-04T02:48:55.643Z,22.70
2022-08-04T02:51:31.195Z,22.70
2022-08-04T02:54:00.548Z,22.70
2022-08-04T02:56:32.669Z,22.80
2022-08-04T02:59:02.103Z,22.80
2022-08-04T03:01:35.621Z,22.80
2022-08-04T03:04:28.762Z,22.90
2022-08-04T03:07:37.139Z,22.90
2022-08-04T03:10:22.965Z,22.90
2022-08-04T03:13:29.842Z,22.90
2022-08-04T03:16:36.710Z,22.90
2022-08-04T03:19:31.546Z,22.80
2022-08-04T03:22:25.515Z,22.80
2022-08-04T03:25:16.968Z,22.80
2022-08-04T03:28:27.816Z,22.80
2022-08-04T03:31:19.284Z,22.80
2022-08-04T03:34:00.568Z,22.70
2022-08-04T03:37:05.616Z,22.80
2022-08-04T03:39:53.687Z,22.80
2022-08-04T03:42:40.822Z,22.80
2022-08-04T03:45:28.785Z,22.80
2022-08-04T03:48:15.915Z,22.80
2022-08-04T03:51:32.300Z,22.80
2022-08-04T03:54:16.335Z,22.80
2022-08-04T03:57:10.750Z,22.80
2022-08-04T03:59:49.859Z,22.80
2022-08-04T04:02:43.635Z,22.80
2022-08-04T04:05:26.219Z,22.80
2022-08-04T04:08:21.764Z,22.80
2022-08-04T04:11:10.178Z,22.80
2022-08-04T04:14:03.619Z,22.70
2022-08-04T04:17:01.109Z,22.80
2022-08-04T04:19:59.856Z,22.70
2022-08-04T04:22:38.502Z,22.70
2022-08-04T04:25:28.469Z,22.70
2022-08-04T04:28:45.508Z,22.70
2022-08-04T04:31:33.503Z,22.70
2022-08-04T04:34:09.469Z,22.70
2022-08-04T04:36:41.107Z,22.70
2022-08-04T04:39:15.814Z,22.70
2022-08-04T04:42:03.245Z,22.70
2022-08-04T04:45:00.717Z,22.70
2022-08-04T04:48:07.631Z,22.70
2022-08-04T04:50:38.059Z,22.70
2022-08-04T04:53:13.884Z,22.70
2022-08-04T04:55:48.372Z,22.70
2022-08-04T04:58:18.381Z,22.70
2022-08-04T05:00:56.339Z,22.70
2022-08-04T05:03:39.457Z,22.70
2022-08-04T05:06:24.371Z,22.80
2022-08-04T05:09:03.676Z,22.80
2022-08-04T05:14:31.860Z,22.80
2022-08-04T05:15:09.315Z,22.70
2022-08-04T05:17:41.216Z,22.80
2022-08-04T05:20:17.874Z,22.80
2022-08-04T05:22:50.369Z,22.80
2022-08-04T05:25:23.682Z,22.80
2022-08-04T05:27:52.985Z,22.80
2022-08-04T05:30:25.476Z,22.80
2022-08-04T05:32:59.966Z,22.80
2022-08-04T05:35:47.928Z,22.70
2022-08-04T05:38:28.146Z,22.70
2022-08-04T05:41:05.962Z,22.70
2022-08-04T05:43:34.972Z,22.70
2022-08-04T05:46:03.281Z,22.70
2022-08-04T05:48:31.903Z,22.70
2022-08-04T05:51:05.162Z,22.70
2022-08-04T05:53:33.969Z,22.80
2022-08-04T05:56:02.354Z,22.80
2022-08-04T05:58:31.035Z,22.80
2022-08-04T06:00:59.793Z,22.80
2022-08-04T06:03:27.956Z,22.90
2022-08-04T06:05:56.757Z,22.90
2022-08-04T06:08:27.047Z,22.90
2022-08-04T06:10:55.583Z,22.90
2022-08-04T06:13:48.651Z,22.90
2022-08-04T06:16:29.682Z,22.90
2022-08-04T06:19:59.898Z,22.90
2022-08-04T06:21:50.298Z,22.90
2022-08-04T06:24:25.365Z,22.80
2022-08-04T06:26:54.223Z,22.80
2022-08-04T06:29:28.389Z,22.90
2022-08-04T06:32:31.344Z,22.80
2022-08-04T06:34:49.623Z,22.80
2022-08-04T06:37:24.145Z,22.80
2022-08-04T06:40:29.933Z,22.80
2022-08-04T06:43:12.939Z,22.80
2022-08-04T06:46:00.054Z,22.90
2022-08-04T06:48:33.117Z,22.90
2022-08-04T06:51:27.259Z,22.90
2022-08-04T06:54:07.588Z,23.00
2022-08-04T06:56:43.053Z,23.10
2022-08-04T06:59:24.133Z,23.10
2022-08-04T07:04:55.918Z,23.40
2022-08-04T07:07:57.120Z,23.60
2022-08-04T07:10:37.971Z,23.80
2022-08-04T07:13:10.914Z,23.90
2022-08-04T07:15:39.743Z,24.00
2022-08-04T07:18:08.383Z,24.00
2022-08-04T07:20:37.187Z,24.10
2022-08-04T07:23:08.217Z,24.20
2022-08-04T07:26:12.769Z,24.20
2022-08-04T07:29:00.487Z,24.30
2022-08-04T07:31:34.288Z,24.60
2022-08-04T07:34:16.715Z,24.80
2022-08-04T07:37:07.116Z,24.90
2022-08-04T07:43:06.391Z,25.10
2022-08-04T07:45:57.629Z,25.10
2022-08-04T07:48:33.468Z,25.20
2022-08-04T07:51:02.778Z,25.20
2022-08-04T07:53:53.124Z,25.30
2022-08-04T08:00:15.068Z,25.60
2022-08-04T08:02:45.076Z,25.70
2022-08-04T08:05:23.408Z,25.70
2022-08-04T08:07:54.862Z,25.80
2022-08-04T08:10:26.303Z,25.90
2022-08-04T08:12:56.571Z,26.00
2022-08-04T08:15:47.142Z,26.00
2022-08-04T08:18:39.983Z,26.10
2022-08-04T08:21:08.642Z,26.30
2022-08-04T08:23:37.773Z,26.40
2022-08-04T08:26:08.991Z,26.70
2022-08-04T08:28:40.123Z,27.00
2022-08-04T08:31:08.910Z,27.30
2022-08-04T08:33:46.441Z,27.50
2022-08-04T08:36:18.615Z,27.80
2022-08-04T08:38:50.028Z,28.10
2022-08-04T08:41:52.960Z,28.20
2022-08-04T08:45:05.391Z,28.20
2022-08-04T08:48:04.934Z,28.30
2022-08-04T08:50:55.076Z,28.30
2022-08-04T08:53:33.314Z,28.40
2022-08-04T08:56:13.467Z,28.50
2022-08-04T08:58:48.981Z,28.60
2022-08-04T09:01:32.513Z,28.60
2022-08-04T09:04:23.681Z,28.80
2022-08-04T09:06:59.355Z,29.00
2022-08-04T09:09:55.745Z,29.20
2022-08-04T09:12:28.076Z,29.30
2022-08-04T09:15:00.244Z,29.30
2022-08-04T09:17:31.987Z,29.50
2022-08-04T09:20:03.941Z,29.60
2022-08-04T09:22:37.754Z,29.50
2022-08-04T09:25:10.383Z,29.20
2022-08-04T09:27:46.017Z,29.00
2022-08-04T09:30:14.954Z,28.90
2022-08-04T09:32:52.111Z,29.00
2022-08-04T09:35:26.037Z,28.80
2022-08-04T09:38:02.210Z,28.70
2022-08-04T09:40:52.643Z,28.50
2022-08-04T09:43:59.235Z,28.50
2022-08-04T09:46:34.354Z,28.50
2022-08-04T09:49:04.449Z,28.40
2022-08-04T09:51:58.026Z,28.30
2022-08-04T09:54:45.776Z,28.20
2022-08-04T09:57:16.591Z,28.20
2022-08-04T09:59:47.313Z,28.10
2022-08-04T10:02:17.536Z,28.00
2022-08-04T10:04:53.200Z,27.90
2022-08-04T10:07:31.508Z,27.70
2022-08-04T10:10:11.686Z,27.60
2022-08-04T10:12:45.597Z,27.50
2022-08-04T10:15:18.061Z,27.50
2022-08-04T10:18:05.573Z,27.40
2022-08-04T10:20:59.024Z,27.40
2022-08-04T10:23:55.691Z,27.40
2022-08-04T10:26:40.682Z,27.30
2022-08-04T10:29:11.520Z,27.30
2022-08-04T10:31:44.004Z,27.40
2022-08-04T10:34:15.490Z,27.50
2022-08-04T10:36:49.892Z,27.60
2022-08-04T10:39:43.232Z,27.70
2022-08-04T10:42:23.637Z,27.60
2022-08-04T10:45:02.199Z,27.50
2022-08-04T10:47:35.346Z,27.50
2022-08-04T10:50:05.573Z,27.30
2022-08-04T10:52:35.821Z,27.20
2022-08-04T10:55:08.985Z,27.20
2022-08-04T10:57:47.717Z,27.20
2022-08-04T11:00:25.062Z,27.30
2022-08-04T11:02:54.897Z,27.50
2022-08-04T11:05:28.684Z,27.60
2022-08-04T11:08:01.774Z,27.90
2022-08-04T11:10:34.595Z,28.00
2022-08-04T11:13:06.233Z,28.10
2022-08-04T11:15:38.149Z,28.30
2022-08-04T11:18:16.609Z,28.50
2022-08-04T11:20:49.267Z,28.90
2022-08-04T11:23:22.592Z,29.20
2022-08-04T11:25:54.622Z,29.50
2022-08-04T11:28:32.558Z,29.80
2022-08-04T11:31:04.578Z,30.20
2022-08-04T11:33:37.320Z,30.40
2022-08-04T11:36:18.208Z,30.50
2022-08-04T11:38:52.024Z,30.80
2022-08-04T11:41:21.842Z,30.90
2022-08-04T11:44:01.389Z,31.00
2022-08-04T11:46:37.140Z,31.20
2022-08-04T11:49:07.375Z,31.40
2022-08-04T11:51:35.606Z,31.50
2022-08-04T11:54:04.308Z,31.60
2022-08-04T11:56:38.420Z,31.70
2022-08-04T11:59:13.121Z,31.80
2022-08-04T12:01:51.480Z,31.80
2022-08-04T12:04:30.097Z,31.90
2022-08-04T12:07:21.889Z,31.90
2022-08-04T12:10:01.062Z,32.00
2022-08-04T12:12:36.639Z,32.10
2022-08-04T12:15:20.811Z,32.00
2022-08-04T12:17:53.841Z,31.90
2022-08-04T12:20:40.308Z,31.70
2022-08-04T12:23:22.857Z,31.70
2022-08-04T12:25:57.188Z,31.70
2022-08-04T12:28:52.635Z,31.90
2022-08-04T12:31:25.366Z,32.00
2022-08-04T12:34:04.206Z,32.20
2022-08-04T12:36:38.770Z,32.40
2022-08-04T12:39:11.640Z,32.40
2022-08-04T12:41:49.542Z,32.40
2022-08-04T12:44:37.301Z,32.20
2022-08-04T12:47:27.631Z,32.30
2022-08-04T12:50:02.968Z,32.30
2022-08-04T12:53:00.337Z,32.30
2022-08-04T12:55:32.998Z,32.20
2022-08-04T12:58:01.287Z,32.10
2022-08-04T13:00:41.778Z,32.30
2022-08-04T13:03:18.983Z,32.40
2022-08-04T13:05:48.490Z,32.60
2022-08-04T13:08:18.223Z,32.80
2022-08-04T13:10:51.169Z,32.80
2022-08-04T13:13:20.147Z,32.80
2022-08-04T13:16:03.728Z,32.70
2022-08-04T13:18:46.249Z,32.60
2022-08-04T13:21:50.079Z,32.50
2022-08-04T13:24:22.720Z,32.50
2022-08-04T13:27:03.533Z,32.60
2022-08-04T13:30:00.304Z,32.70
2022-08-04T13:32:31.323Z,32.60
2022-08-04T13:35:10.545Z,32.60
2022-08-04T13:37:39.028Z,32.50
2022-08-04T13:40:09.488Z,32.20
2022-08-04T13:42:44.131Z,32.20
2022-08-04T13:45:13.554Z,32.30
2022-08-04T13:47:46.029Z,32.20
2022-08-04T13:50:18.304Z,32.20
2022-08-04T13:52:50.272Z,32.20
2022-08-04T13:55:25.156Z,32.10
2022-08-04T13:58:14.550Z,32.10
2022-08-04T14:00:52.346Z,32.30
2022-08-04T14:03:24.851Z,32.20
2022-08-04T14:06:16.905Z,32.00
2022-08-04T14:09:01.108Z,31.90
2022-08-04T14:12:06.196Z,31.90
2022-08-04T14:14:24.804Z,31.90
2022-08-04T14:17:01.605Z,32.00
2022-08-04T14:19:36.128Z,32.00
2022-08-04T14:22:16.708Z,32.10
2022-08-04T14:24:51.613Z,32.30
2022-08-04T14:27:24.636Z,32.30
2022-08-04T14:30:07.759Z,32.20
2022-08-04T14:32:36.488Z,32.20
2022-08-04T14:35:18.786Z,32.20
2022-08-04T14:38:03.386Z,32.10
2022-08-04T14:40:33.557Z,32.20
2022-08-04T14:43:05.205Z,32.00
2022-08-04T14:45:55.061Z,31.60
2022-08-04T14:48:30.101Z,31.20
2022-08-04T14:50:58.837Z,31.20
2022-08-04T14:53:29.572Z,31.20
2022-08-04T14:56:02.795Z,31.20
2022-08-04T14:58:39.044Z,31.30
2022-08-04T15:01:10.478Z,31.50
2022-08-04T15:03:49.709Z,31.30
2022-08-04T15:06:24.132Z,31.10
2022-08-04T15:08:55.031Z,30.90
2022-08-04T15:11:26.127Z,30.70
2022-08-04T15:13:54.422Z,30.70
2022-08-04T15:16:25.185Z,30.80
2022-08-04T15:18:54.908Z,31.00
2022-08-04T15:21:26.083Z,31.00
2022-08-04T15:23:56.168Z,30.90
2022-08-04T15:26:29.898Z,30.70
2022-08-04T15:29:00.606Z,30.40
2022-08-04T15:32:05.739Z,30.50
2022-08-04T15:34:26.180Z,30.60
2022-08-04T15:36:57.887Z,30.80
2022-08-04T15:39:39.391Z,30.80
2022-08-04T15:42:20.850Z,30.90
2022-08-04T15:45:08.435Z,31.00
2022-08-04T15:47:40.620Z,30.90
2022-08-04T15:50:28.124Z,30.70
2022-08-04T15:53:12.904Z,30.40
2022-08-04T15:55:44.151Z,30.10
2022-08-04T15:58:13.003Z,29.90
2022-08-04T16:01:18.898Z,29.60
2022-08-04T16:04:00.334Z,29.50
2022-08-04T16:06:55.138Z,29.30
2022-08-04T16:09:45.487Z,29.00
2022-08-04T16:12:55.881Z,28.80
2022-08-04T16:15:47.013Z,28.60
2022-08-04T16:18:26.948Z,28.40
2022-08-04T16:21:08.107Z,28.20
2022-08-04T16:24:05.280Z,28.00
2022-08-04T16:26:57.910Z,27.70
2022-08-04T16:29:37.305Z,27.40
2022-08-04T16:32:29.926Z,27.20
2022-08-04T16:35:01.044Z,27.10
2022-08-04T16:37:44.254Z,27.00
2022-08-04T16:40:36.334Z,26.90
2022-08-04T16:43:13.275Z,26.70
2022-08-04T16:45:54.013Z,26.70
2022-08-04T16:48:26.871Z,26.70
2022-08-04T16:51:04.562Z,26.70
2022-08-04T16:54:03.709Z,26.70
2022-08-04T16:56:36.379Z,26.60
2022-08-04T16:59:11.131Z,26.60
2022-08-04T17:01:48.359Z,26.40
2022-08-04T17:04:19.110Z,26.30
2022-08-04T17:06:52.529Z,26.20
2022-08-04T17:09:25.520Z,26.10
2022-08-04T17:11:59.282Z,26.00
2022-08-04T17:14:32.421Z,25.90
2022-08-04T17:17:02.721Z,25.80
2022-08-04T17:19:40.748Z,25.80
2022-08-04T17:22:16.141Z,25.70
2022-08-04T17:25:18.100Z,25.60
2022-08-04T17:28:19.952Z,25.60
2022-08-04T17:30:34.959Z,25.40
2022-08-04T17:33:03.157Z,25.40
2022-08-04T17:35:41.307Z,25.30
2022-08-04T17:38:15.834Z,25.30
2022-08-04T17:40:54.511Z,25.20
2022-08-04T17:44:05.281Z,25.00
2022-08-04T17:46:31.886Z,24.90
2022-08-04T17:49:05.490Z,24.90
2022-08-04T17:52:04.549Z,24.80
2022-08-04T17:54:43.272Z,24.80
2022-08-04T18:00:05.517Z,24.70
2022-08-04T18:02:42.070Z,24.60
2022-08-04T18:05:12.109Z,24.50
2022-08-04T18:08:42.736Z,24.40
2022-08-04T18:10:55.738Z,24.40
2022-08-04T18:13:43.028Z,24.40
2022-08-04T18:16:22.675Z,24.30
2022-08-04T18:19:09.472Z,24.20
2022-08-04T18:21:46.080Z,24.00
2022-08-04T18:24:35.607Z,23.90
2022-08-04T18:27:21.744Z,23.80
2022-08-04T18:30:33.685Z,23.80
2022-08-04T18:32:51.309Z,23.70
2022-08-04T18:36:31.643Z,23.70
2022-08-04T18:38:24.083Z,23.70
2022-08-04T18:40:57.938Z,23.70
2022-08-04T18:43:28.716Z,23.60
2022-08-04T18:48:52.234Z,23.40
2022-08-04T18:51:23.947Z,23.40
2022-08-04T18:53:59.918Z,23.30
2022-08-04T18:56:32.649Z,23.30
2022-08-04T18:59:11.417Z,23.20
2022-08-04T19:02:12.719Z,23.10
2022-08-04T19:04:49.671Z,23.00
2022-08-04T19:07:29.264Z,23.00
2022-08-04T19:13:03.045Z,22.90
2022-08-04T19:15:53.594Z,22.90
2022-08-04T19:18:24.978Z,22.80
2022-08-04T19:20:54.296Z,22.70
2022-08-04T19:24:10.995Z,22.60
2022-08-04T19:26:27.736Z,22.60
2022-08-04T19:28:59.251Z,22.70
2022-08-04T19:31:39.956Z,22.70
2022-08-04T19:34:10.178Z,22.60
2022-08-04T19:36:39.684Z,22.60
2022-08-04T19:39:14.786Z,22.50
2022-08-04T19:42:05.754Z,22.50
2022-08-04T19:44:44.508Z,22.60
2022-08-04T19:48:21.129Z,22.60
2022-08-04T19:50:04.745Z,22.60
2022-08-04T19:52:51.351Z,22.60
2022-08-04T19:55:22.381Z,22.50
2022-08-04T19:57:52.502Z,22.50
2022-08-04T20:00:33.418Z,22.40
2022-08-04T20:03:03.946Z,22.40
2022-08-04T20:05:53.971Z,22.30
2022-08-04T20:08:24.406Z,22.30
2022-08-04T20:10:54.821Z,22.30
2022-08-04T20:13:37.348Z,22.30
2022-08-04T20:16:29.628Z,22.30
2022-08-04T20:19:02.847Z,22.30
2022-08-04T20:21:54.398Z,22.30
2022-08-04T20:24:38.718Z,22.20
2022-08-04T20:27:15.234Z,22.30
2022-08-04T20:29:48.730Z,22.30
2022-08-04T20:32:22.179Z,22.30
2022-08-04T20:34:51.335Z,22.30
2022-08-04T20:40:12.150Z,22.20
2022-08-04T20:42:41.719Z,22.20
2022-08-04T20:48:04.832Z,22.00
2022-08-04T20:50:43.763Z,22.00
2022-08-04T20:53:17.138Z,21.90
2022-08-04T20:55:54.829Z,21.90
2022-08-04T20:58:27.667Z,21.90
2022-08-04T21:01:00.582Z,21.90
2022-08-04T21:06:26.639Z,21.80
2022-08-04T21:08:57.770Z,21.80
2022-08-04T22:08:03.839Z,21.30
2022-08-04T22:10:33.239Z,21.30
2022-08-04T22:13:07.093Z,21.30
2022-08-04T22:16:04.876Z,21.30
2022-08-04T22:18:27.932Z,21.30
2022-08-04T22:21:01.408Z,21.30
2022-08-04T22:23:30.998Z,21.30
2022-08-04T22:26:19.903Z,21.30
2022-08-04T22:28:49.358Z,21.30
2022-08-04T22:31:26.934Z,21.30
2022-08-04T22:34:15.048Z,21.30
2022-08-04T22:36:47.583Z,21.30
2022-08-04T22:39:16.855Z,21.30
2022-08-04T22:41:48.778Z,21.30
2022-08-04T22:44:29.604Z,21.20
2022-08-04T22:47:02.349Z,21.20
2022-08-04T22:49:33.660Z,21.20
2022-08-04T22:52:55.805Z,21.20
2022-08-04T22:57:43.503Z,21.10
2022-08-04T22:59:53.931Z,21.20
2022-08-04T23:06:15.915Z,21.10
2022-08-04T23:15:09.322Z,21.00
2022-08-04T23:17:53.141Z,20.90
2022-08-04T23:20:49.975Z,20.90
2022-08-04T23:24:23.240Z,20.90
2022-08-04T23:27:52.301Z,20.90
2022-08-04T23:30:38.907Z,20.90
2022-08-04T23:33:49.305Z,21.00
2022-08-04T23:36:32.686Z,21.00
2022-08-04T23:39:06.558Z,20.90
2022-08-04T23:41:59.951Z,20.80
2022-08-04T23:44:42.986Z,20.80
2022-08-04T23:48:15.088Z,20.80
2022-08-04T23:50:16.341Z,20.70
2022-08-04T23:53:03.338Z,20.70
2022-08-04T23:58:37.858Z,20.80
2022-08-04T23:59:23.130Z,20.80
